Aviation Digital Data Service (ADDS)

Output produced by METARs form (1930 UTC 23 June 2018)
found at http://aviationweather.gov/adds/metars/
 
KMCB 231853Z AUTO 22009KT 10SM FEW041 FEW050 33/22 A2995 RMK AO2 SLP133 T03280217 TSNO